aviador You're here:

KDIK Decoded Metar

DICKINSON in ND, USA
Report Time2018-06-18 14:56:00
UTC Time2018-06-18 15:24:46
Flight Rules vfr VFR
Wind060° at 09 kt
W.Decomp.*RWY 07: 8.5 kt HW 3.1 kt LCW
RWY 14: 9 kt LCW
W.Rank060° ranks 26
Current wind is above 060° avg. (7.9)
Visibility9999 m
Phenomena:N/A
Clouds:N/A
Expected CloudBase > 3,200 ft AGL from Temp-Dew spread
CeilingNone
Temp19°C (ISA +9)
Dew Point11°C (60% RH)
AAT16.1°C
QNH1021 hPa
Density Alt3,566 ft
Elevation2,585 ft
Report Wrong Elevation
Raw Report
KDIK 181456Z AUTO 06009KT 10SM CLR 19/11 A3014 RMK AO2 SLP199
T01940111 50000=

Extra information for KDIK:More info

Metar Taf Metar & Taf Last 4 Metars F.Rules Stats Wind Profile Meteogram Temp Stats Airport Information Weather charts Add Link Nearby VenuesMetar ALERT Operation Metar Decoded Social comments

AIRNAV info for KDIK